Time;durP1;ratioP1;P1;durP2;ratioP2;P2;SDS_P1;SDS_P2;PMS_P1;PMS_P2;Temp;Humidity;BMP_temperature;BMP_pressure;BME280_temperature;BME280_humidity;BME280_pressure;Samples;Min_cycle;Max_cycle;Signal;HPM_P1;HPM_P2
2021/10/27 00:00:39;;;;;;;17.60;12.77;;;;;;;;;;5015611;28;20573;-67
2021/10/27 00:03:07;;;;;;;16.10;12.30;;;;;;;;;;5001196;28;21350;-68
2021/10/27 00:05:34;;;;;;;16.20;11.93;;;;;;;;;;5007295;28;20440;-67
2021/10/27 00:08:00;;;;;;;16.57;12.33;;;;;;;;;;5000979;28;20480;-68
2021/10/27 00:10:27;;;;;;;17.80;12.73;;;;;;;;;;5017972;28;20446;-68
2021/10/27 00:12:54;;;;;;;15.07;11.83;;;;;;;;;;5008479;28;20444;-64
2021/10/27 00:15:21;;;;;;;17.50;12.17;;;;;;;;;;5017899;28;20446;-65
2021/10/27 00:17:48;;;;;;;14.80;11.43;;;;;;;;;;5020230;28;20495;-67
2021/10/27 00:20:15;;;;;;;17.03;12.30;;;;;;;;;;5014475;28;21162;-66
2021/10/27 00:22:43;;;;;;;16.13;12.27;;;;;;;;;;5010380;28;20508;-68
2021/10/27 00:25:10;;;;;;;15.73;11.43;;;;;;;;;;5014244;28;20984;-68
2021/10/27 00:27:36;;;;;;;14.77;11.90;;;;;;;;;;5018684;28;20489;-68
2021/10/27 00:30:04;;;;;;;16.27;11.97;;;;;;;;;;5015750;28;20440;-66
2021/10/27 00:32:31;;;;;;;15.87;11.80;;;;;;;;;;5014393;28;20510;-66
2021/10/27 00:34:58;;;;;;;18.77;12.23;;;;;;;;;;5019659;28;20448;-66
2021/10/27 00:37:24;;;;;;;17.27;13.10;;;;;;;;;;5017578;28;20495;-66
2021/10/27 00:39:51;;;;;;;17.33;12.90;;;;;;;;;;5020742;28;20444;-68
2021/10/27 00:42:18;;;;;;;17.77;12.13;;;;;;;;;;5014839;28;20851;-68
2021/10/27 00:44:45;;;;;;;17.07;13.07;;;;;;;;;;5007954;28;20441;-66
2021/10/27 00:47:13;;;;;;;21.87;15.23;;;;;;;;;;5017393;28;20452;-69
2021/10/27 00:49:43;;;;;;;25.57;16.20;;;;;;;;;;5007752;28;20447;-67
2021/10/27 00:52:11;;;;;;;27.30;18.53;;;;;;;;;;4998926;28;20476;-67
2021/10/27 00:54:40;;;;;;;23.70;17.50;;;;;;;;;;5020914;28;20447;-69
2021/10/27 00:57:07;;;;;;;26.40;18.23;;;;;;;;;;5012114;28;20839;-66
2021/10/27 00:59:38;;;;;;;25.93;17.67;;;;;;;;;;5010526;28;20453;-66
2021/10/27 01:02:05;;;;;;;24.45;16.98;;;;;;;;;;5009639;28;21037;-65
2021/10/27 01:04:31;;;;;;;26.87;16.83;;;;;;;;;;5008635;28;20658;-68
2021/10/27 01:06:58;;;;;;;27.58;17.70;;;;;;;;;;5014362;28;20447;-68
2021/10/27 01:09:25;;;;;;;27.63;18.65;;;;;;;;;;5010898;28;20711;-67
2021/10/27 01:11:52;;;;;;;30.50;19.73;;;;;;;;;;5008674;28;20201;-69
2021/10/27 01:14:19;;;;;;;27.90;18.47;;;;;;;;;;5011105;28;21335;-69
2021/10/27 01:16:46;;;;;;;32.83;19.73;;;;;;;;;;5023374;28;21012;-70
2021/10/27 01:19:14;;;;;;;34.05;19.15;;;;;;;;;;5029704;28;20205;-67
2021/10/27 01:21:45;;;;;;;28.40;19.37;;;;;;;;;;5026205;28;20626;-68
2021/10/27 01:24:12;;;;;;;33.15;19.45;;;;;;;;;;5029945;28;20440;-69
2021/10/27 01:26:39;;;;;;;30.90;19.65;;;;;;;;;;5030199;28;20201;-70
2021/10/27 01:29:06;;;;;;;30.27;19.53;;;;;;;;;;5012521;28;20186;-68
2021/10/27 01:31:32;;;;;;;29.73;19.57;;;;;;;;;;5010154;28;20449;-69
2021/10/27 01:34:00;;;;;;;28.05;19.30;;;;;;;;;;5015230;28;20440;-66
2021/10/27 01:36:29;;;;;;;30.17;20.92;;;;;;;;;;5014968;28;20275;-67
2021/10/27 01:38:56;;;;;;;32.28;20.70;;;;;;;;;;5021049;28;20734;-66
2021/10/27 01:41:25;;;;;;;39.55;25.45;;;;;;;;;;5022506;28;20204;-67
2021/10/27 01:43:53;;;;;;;32.95;21.73;;;;;;;;;;5020446;28;20268;-66
2021/10/27 01:46:27;;;;;;;40.80;24.00;;;;;;;;;;5008338;28;20201;-65
2021/10/27 01:48:55;;;;;;;38.70;24.30;;;;;;;;;;5012046;28;20185;-67
2021/10/27 01:51:22;;;;;;;40.20;23.70;;;;;;;;;;5017784;28;20201;-68
2021/10/27 01:53:49;;;;;;;38.70;22.70;;;;;;;;;;5021112;28;20208;-66
2021/10/27 01:56:16;;;;;;;34.63;21.60;;;;;;;;;;5021158;28;20263;-67
2021/10/27 01:58:43;;;;;;;34.33;22.63;;;;;;;;;;5014113;28;20189;-69
2021/10/27 02:01:11;;;;;;;30.75;21.42;;;;;;;;;;5014574;28;20281;-68
2021/10/27 02:03:38;;;;;;;37.45;22.85;;;;;;;;;;5015050;28;20205;-66
2021/10/27 02:06:06;;;;;;;31.83;21.55;;;;;;;;;;5019490;28;20193;-68
2021/10/27 02:08:33;;;;;;;33.00;21.00;;;;;;;;;;5021340;28;20229;-68
2021/10/27 02:11:00;;;;;;;30.10;21.02;;;;;;;;;;5011263;28;20201;-65
2021/10/27 02:13:47;;;;;;;33.97;21.17;;;;;;;;;;5023105;28;20610;-67
2021/10/27 02:16:14;;;;;;;31.60;21.27;;;;;;;;;;5008454;28;20242;-67
2021/10/27 02:18:41;;;;;;;32.78;21.08;;;;;;;;;;5027081;28;20197;-68
2021/10/27 02:21:09;;;;;;;35.92;20.85;;;;;;;;;;5032713;28;20239;-68
2021/10/27 02:23:36;;;;;;;27.77;20.15;;;;;;;;;;5016188;28;20562;-68
2021/10/27 02:26:02;;;;;;;29.88;20.50;;;;;;;;;;5023246;28;20552;-66
2021/10/27 02:28:29;;;;;;;29.02;20.38;;;;;;;;;;5021827;28;20296;-71
2021/10/27 02:30:56;;;;;;;32.85;20.55;;;;;;;;;;5019807;28;20193;-68
2021/10/27 02:33:23;;;;;;;34.38;21.95;;;;;;;;;;5017833;28;20584;-67
2021/10/27 02:35:50;;;;;;;32.58;21.35;;;;;;;;;;5009229;28;20198;-67
2021/10/27 02:38:38;;;;;;;34.05;21.60;;;;;;;;;;5004150;28;20208;-67
2021/10/27 02:41:05;;;;;;;35.72;23.02;;;;;;;;;;5013061;28;20202;-68
2021/10/27 02:43:34;;;;;;;41.17;26.67;;;;;;;;;;5026972;28;20185;-65
2021/10/27 02:46:02;;;;;;;37.30;23.85;;;;;;;;;;5034729;28;20208;-69
2021/10/27 02:48:29;;;;;;;34.53;23.13;;;;;;;;;;5020765;28;20198;-67
2021/10/27 02:50:57;;;;;;;36.28;23.40;;;;;;;;;;5015526;28;20190;-67
2021/10/27 02:53:26;;;;;;;34.97;22.38;;;;;;;;;;5026459;28;20197;-66
2021/10/27 02:55:52;;;;;;;33.80;22.77;;;;;;;;;;5013220;28;20191;-67
2021/10/27 02:58:19;;;;;;;34.25;23.00;;;;;;;;;;5018592;28;20235;-69
2021/10/27 03:00:46;;;;;;;31.63;22.60;;;;;;;;;;5019923;28;20945;-65
2021/10/27 03:03:14;;;;;;;37.97;22.63;;;;;;;;;;5024336;28;20283;-69
2021/10/27 03:05:42;;;;;;;35.53;21.77;;;;;;;;;;5019603;28;20202;-67
2021/10/27 03:08:08;;;;;;;32.75;22.38;;;;;;;;;;5005457;28;20230;-69
2021/10/27 03:10:35;;;;;;;32.83;20.65;;;;;;;;;;5024167;28;20729;-67
2021/10/27 03:13:02;;;;;;;31.52;19.45;;;;;;;;;;5020059;28;20201;-68
2021/10/27 03:15:30;;;;;;;33.28;20.48;;;;;;;;;;5021021;28;20318;-68
2021/10/27 03:17:57;;;;;;;31.55;19.80;;;;;;;;;;5032295;28;20221;-66
2021/10/27 03:20:24;;;;;;;26.88;18.40;;;;;;;;;;5019811;28;20647;-67
2021/10/27 03:22:51;;;;;;;29.75;18.98;;;;;;;;;;5031964;28;20251;-66
2021/10/27 03:25:19;;;;;;;32.10;19.48;;;;;;;;;;5028642;28;20198;-67
2021/10/27 03:27:46;;;;;;;27.05;18.13;;;;;;;;;;5021401;28;20204;-65
2021/10/27 03:30:15;;;;;;;27.50;18.08;;;;;;;;;;5031561;28;20197;-68
2021/10/27 03:32:42;;;;;;;24.85;17.70;;;;;;;;;;5031695;28;20201;-68
2021/10/27 03:35:09;;;;;;;28.90;17.92;;;;;;;;;;5026626;28;20225;-67
2021/10/27 03:37:36;;;;;;;30.65;17.83;;;;;;;;;;5020518;28;20225;-67
2021/10/27 03:40:04;;;;;;;28.73;17.40;;;;;;;;;;5023204;28;20255;-67
2021/10/27 03:42:31;;;;;;;26.13;16.67;;;;;;;;;;5024279;28;20193;-66
2021/10/27 03:45:00;;;;;;;26.33;16.98;;;;;;;;;;5024270;28;20208;-66
2021/10/27 03:47:26;;;;;;;24.48;16.52;;;;;;;;;;5012791;28;20570;-66
2021/10/27 03:49:54;;;;;;;29.65;16.73;;;;;;;;;;5025832;28;20200;-68
2021/10/27 03:52:28;;;;;;;28.27;17.55;;;;;;;;;;5018627;28;20261;-68
2021/10/27 03:54:54;;;;;;;23.48;16.27;;;;;;;;;;5026807;28;20193;-68
2021/10/27 03:57:23;;;;;;;31.33;17.95;;;;;;;;;;5027782;28;20231;-66
2021/10/27 03:59:50;;;;;;;29.75;17.38;;;;;;;;;;5019153;28;20205;-68
2021/10/27 04:02:19;;;;;;;27.65;16.70;;;;;;;;;;5028265;28;20189;-70
2021/10/27 04:04:45;;;;;;;27.38;16.77;;;;;;;;;;5030952;28;20197;-68
2021/10/27 04:07:12;;;;;;;29.15;16.95;;;;;;;;;;5016275;28;20198;-67
2021/10/27 04:09:39;;;;;;;28.15;17.20;;;;;;;;;;5030170;28;20225;-68
2021/10/27 04:12:06;;;;;;;29.45;17.35;;;;;;;;;;5028420;28;20249;-69
2021/10/27 04:14:32;;;;;;;26.00;16.33;;;;;;;;;;5031213;28;20220;-65
2021/10/27 04:17:00;;;;;;;28.17;17.05;;;;;;;;;;5030325;28;20225;-67
2021/10/27 04:19:27;;;;;;;31.35;18.38;;;;;;;;;;5019145;28;20194;-68
2021/10/27 04:21:54;;;;;;;30.90;18.60;;;;;;;;;;5022196;28;21156;-66
2021/10/27 04:24:21;;;;;;;27.30;16.92;;;;;;;;;;5032058;28;20563;-68
2021/10/27 04:26:47;;;;;;;29.35;17.45;;;;;;;;;;5027079;28;20671;-66
2021/10/27 04:29:15;;;;;;;37.35;20.67;;;;;;;;;;5030103;28;20193;-67
2021/10/27 04:31:42;;;;;;;37.05;22.23;;;;;;;;;;5029325;28;20197;-66
2021/10/27 04:34:09;;;;;;;37.50;21.77;;;;;;;;;;5028318;28;20288;-67
2021/10/27 04:36:36;;;;;;;35.53;19.15;;;;;;;;;;5017988;28;20682;-67
2021/10/27 04:39:03;;;;;;;30.25;18.42;;;;;;;;;;5028484;28;20702;-69
2021/10/27 04:41:29;;;;;;;41.85;17.55;;;;;;;;;;5025833;28;20197;-69
2021/10/27 04:43:56;;;;;;;33.17;18.38;;;;;;;;;;5023571;28;20189;-66
2021/10/27 04:46:23;;;;;;;34.80;17.10;;;;;;;;;;5028366;28;20970;-69
2021/10/27 04:48:50;;;;;;;29.70;17.30;;;;;;;;;;5015852;28;20228;-70
2021/10/27 04:51:17;;;;;;;33.60;16.80;;;;;;;;;;5017668;28;20202;-72
2021/10/27 04:53:43;;;;;;;44.50;21.70;;;;;;;;;;5012949;28;20189;-70
2021/10/27 04:56:10;;;;;;;97.40;61.60;;;;;;;;;;5019578;28;20210;-68
2021/10/27 04:58:37;;;;;;;36.92;20.58;;;;;;;;;;5009710;28;20236;-69
2021/10/27 05:01:05;;;;;;;36.55;19.35;;;;;;;;;;5018654;28;20802;-68
2021/10/27 05:03:32;;;;;;;30.60;17.63;;;;;;;;;;5029564;28;20189;-70
2021/10/27 05:06:01;;;;;;;33.42;18.10;;;;;;;;;;5030010;28;20189;-66
2021/10/27 05:08:31;;;;;;;30.75;17.92;;;;;;;;;;5016120;28;20308;-69
2021/10/27 05:10:58;;;;;;;32.72;18.05;;;;;;;;;;5010436;28;20216;-67
2021/10/27 05:13:25;;;;;;;39.60;18.73;;;;;;;;;;5021754;28;20259;-69
2021/10/27 05:15:51;;;;;;;45.63;20.23;;;;;;;;;;5020398;28;20194;-68
2021/10/27 05:18:18;;;;;;;45.53;22.23;;;;;;;;;;5009180;28;20237;-69
2021/10/27 05:20:46;;;;;;;61.78;32.28;;;;;;;;;;5009791;28;20651;-69
2021/10/27 05:23:13;;;;;;;51.90;25.65;;;;;;;;;;5021004;28;20277;-68
2021/10/27 05:25:40;;;;;;;49.67;25.13;;;;;;;;;;5017090;28;20194;-65
2021/10/27 05:28:07;;;;;;;45.05;24.67;;;;;;;;;;5015452;28;20208;-65
2021/10/27 05:30:34;;;;;;;42.83;24.55;;;;;;;;;;5014230;28;20200;-66
2021/10/27 05:33:01;;;;;;;51.67;24.15;;;;;;;;;;5020705;28;20212;-71
2021/10/27 05:35:29;;;;;;;48.67;25.02;;;;;;;;;;5018346;28;20238;-66
2021/10/27 05:37:56;;;;;;;51.75;24.30;;;;;;;;;;5017229;28;20299;-65
2021/10/27 05:40:23;;;;;;;54.70;25.40;;;;;;;;;;5025667;28;20194;-63
2021/10/27 05:42:51;;;;;;;48.90;23.65;;;;;;;;;;5016567;28;20625;-68
2021/10/27 05:45:20;;;;;;;53.20;27.75;;;;;;;;;;5015133;28;20656;-65
2021/10/27 05:47:51;;;;;;;59.30;32.97;;;;;;;;;;5011648;28;20747;-69
2021/10/27 05:55:49;;;;;;;69.57;41.25;;;;;;;;;;5020010;28;20259;-67
2021/10/27 05:58:18;;;;;;;90.53;43.83;;;;;;;;;;5016871;28;20225;-67
2021/10/27 06:00:45;;;;;;;81.10;41.90;;;;;;;;;;5031836;28;20279;-69
2021/10/27 06:03:12;;;;;;;68.63;42.13;;;;;;;;;;5033891;28;20200;-66
2021/10/27 06:05:39;;;;;;;70.07;39.65;;;;;;;;;;5030174;28;20201;-64
2021/10/27 06:08:06;;;;;;;73.70;41.42;;;;;;;;;;5028464;28;20244;-68
2021/10/27 06:10:34;;;;;;;69.63;39.05;;;;;;;;;;5014914;28;20202;-65
2021/10/27 06:13:04;;;;;;;90.93;44.53;;;;;;;;;;5028679;28;20197;-67
2021/10/27 06:15:32;;;;;;;85.78;43.38;;;;;;;;;;5019998;28;20243;-66
2021/10/27 06:17:59;;;;;;;79.47;44.00;;;;;;;;;;5015998;28;20217;-67
2021/10/27 06:20:26;;;;;;;76.72;42.88;;;;;;;;;;5022792;28;20614;-67
2021/10/27 06:22:52;;;;;;;77.93;43.67;;;;;;;;;;5020266;28;20205;-66
2021/10/27 06:25:19;;;;;;;75.15;39.38;;;;;;;;;;5012008;28;20213;-66
2021/10/27 06:27:49;;;;;;;70.32;40.80;;;;;;;;;;5008729;28;20205;-68
2021/10/27 06:33:42;;;;;;;78.20;44.67;;;;;;;;;;5036659;28;20225;-70
2021/10/27 06:36:32;;;;;;;79.75;45.40;;;;;;;;;;5018058;28;20196;-63
2021/10/27 06:47:01;;;;;;;80.18;49.35;;;;;;;;;;5064172;28;20215;-66
2021/10/27 06:49:30;;;;;;;81.95;49.63;;;;;;;;;;5019985;28;20205;-68
2021/10/27 06:52:03;;;;;;;103.80;52.95;;;;;;;;;;5015832;28;20284;-69
2021/10/27 06:54:29;;;;;;;88.50;51.45;;;;;;;;;;5021871;28;20201;-64
2021/10/27 06:56:56;;;;;;;78.20;46.00;;;;;;;;;;5028240;28;20568;-67
2021/10/27 07:17:47;;;;;;;66.70;34.80;;;;;;;;;;5032014;28;20466;-67
2021/10/27 07:20:14;;;;;;;67.95;34.55;;;;;;;;;;5032329;28;20690;-66
2021/10/27 07:22:41;;;;;;;57.87;32.17;;;;;;;;;;5022385;28;20194;-66
2021/10/27 07:25:09;;;;;;;59.20;32.83;;;;;;;;;;5027600;28;20493;-67
2021/10/27 07:27:36;;;;;;;55.83;33.40;;;;;;;;;;5031335;28;20432;-67
2021/10/27 07:30:03;;;;;;;64.80;35.13;;;;;;;;;;5031029;28;20535;-67
2021/10/27 07:32:30;;;;;;;64.50;37.10;;;;;;;;;;5018124;28;20440;-67
2021/10/27 07:40:41;;;;;;;68.50;37.90;;;;;;;;;;5029437;28;20443;-71
2021/10/27 07:43:15;;;;;;;58.90;38.00;;;;;;;;;;5032517;28;20439;-69
2021/10/27 07:45:42;;;;;;;61.93;38.93;;;;;;;;;;5030457;28;20451;-67
2021/10/27 07:48:10;;;;;;;56.17;36.30;;;;;;;;;;5013988;28;20445;-67
2021/10/27 07:50:37;;;;;;;57.87;37.07;;;;;;;;;;5027824;28;20520;-73
2021/10/27 07:53:06;;;;;;;52.50;33.90;;;;;;;;;;5025340;28;20442;-65
2021/10/27 07:55:34;;;;;;;53.17;32.27;;;;;;;;;;5026006;28;20547;-67
2021/10/27 07:58:02;;;;;;;54.47;33.57;;;;;;;;;;5022325;28;20483;-69
2021/10/27 08:00:31;;;;;;;51.50;33.73;;;;;;;;;;5031221;28;20503;-66
2021/10/27 08:03:02;;;;;;;54.40;34.23;;;;;;;;;;5020648;28;20503;-68
2021/10/27 08:05:34;;;;;;;54.03;33.87;;;;;;;;;;5010914;28;20441;-68
2021/10/27 08:08:00;;;;;;;46.80;32.57;;;;;;;;;;5010923;28;20993;-68
2021/10/27 08:10:29;;;;;;;47.67;32.43;;;;;;;;;;5010783;28;20450;-67
2021/10/27 08:12:56;;;;;;;50.70;31.50;;;;;;;;;;5018944;28;20813;-68
2021/10/27 08:15:24;;;;;;;48.23;31.23;;;;;;;;;;5022119;28;20452;-65
2021/10/27 08:17:51;;;;;;;42.67;28.87;;;;;;;;;;5018650;28;20770;-68
2021/10/27 08:20:22;;;;;;;54.43;29.47;;;;;;;;;;5025259;28;20495;-66
2021/10/27 08:23:10;;;;;;;38.27;24.83;;;;;;;;;;5021663;28;20824;-71
2021/10/27 08:25:43;;;;;;;35.30;22.03;;;;;;;;;;5030958;28;21027;-68
2021/10/27 08:28:13;;;;;;;31.53;22.57;;;;;;;;;;5030578;28;20513;-67
2021/10/27 08:33:20;;;;;;;36.43;21.73;;;;;;;;;;5030124;28;20454;-67
2021/10/27 08:35:50;;;;;;;28.90;19.47;;;;;;;;;;5030550;28;20447;-69
2021/10/27 08:38:17;;;;;;;32.80;17.10;;;;;;;;;;5030262;28;20480;-64
2021/10/27 08:40:47;;;;;;;38.67;17.00;;;;;;;;;;5030457;28;20436;-67
2021/10/27 08:43:14;;;;;;;60.40;21.13;;;;;;;;;;5031338;28;20444;-65
2021/10/27 08:45:41;;;;;;;40.80;15.77;;;;;;;;;;5016981;28;20522;-65
2021/10/27 08:48:09;;;;;;;37.23;16.57;;;;;;;;;;5016400;28;20448;-69
2021/10/27 08:50:38;;;;;;;22.50;14.10;;;;;;;;;;5010723;28;20448;-64
2021/10/27 08:53:11;;;;;;;17.70;14.57;;;;;;;;;;5010742;28;20460;-66
2021/10/27 08:55:40;;;;;;;16.50;13.17;;;;;;;;;;5010894;28;20437;-69
2021/10/27 08:58:08;;;;;;;16.90;13.77;;;;;;;;;;5010023;28;20504;-65
2021/10/27 09:00:39;;;;;;;13.73;12.07;;;;;;;;;;5024616;28;20811;-65
2021/10/27 09:38:53;;;;;;;12.97;10.70;;;;;;;;;;5015344;28;20534;-65
2021/10/27 10:06:48;;;;;;;15.37;11.17;;;;;;;;;;5020546;28;20536;-65
2021/10/27 10:09:16;;;;;;;14.17;9.17;;;;;;;;;;5021580;28;20510;-65
2021/10/27 10:11:44;;;;;;;10.73;9.30;;;;;;;;;;5035571;28;20527;-64
2021/10/27 10:14:13;;;;;;;9.93;8.20;;;;;;;;;;5014390;28;20448;-70
2021/10/27 10:16:46;;;;;;;8.87;7.97;;;;;;;;;;5029153;28;20444;-65
2021/10/27 10:19:17;;;;;;;9.17;7.53;;;;;;;;;;5032995;28;20530;-65
2021/10/27 10:21:45;;;;;;;10.33;8.50;;;;;;;;;;5032380;28;20450;-66
2021/10/27 10:24:15;;;;;;;13.90;8.77;;;;;;;;;;5024869;28;20949;-66
2021/10/27 10:26:42;;;;;;;9.70;8.60;;;;;;;;;;5026023;28;20551;-68
2021/10/27 10:29:09;;;;;;;9.87;8.43;;;;;;;;;;5013276;28;20484;-69
2021/10/27 10:31:38;;;;;;;10.43;8.73;;;;;;;;;;5012501;28;20480;-70
2021/10/27 10:34:09;;;;;;;11.87;8.47;;;;;;;;;;5013143;28;20437;-68
2021/10/27 10:36:43;;;;;;;12.40;8.60;;;;;;;;;;5024844;28;20474;-68
2021/10/27 10:39:46;;;;;;;8.93;8.03;;;;;;;;;;5032834;28;20487;-67
2021/10/27 10:42:45;;;;;;;12.00;8.43;;;;;;;;;;5032033;28;20475;-68
2021/10/27 10:45:40;;;;;;;10.50;8.10;;;;;;;;;;5032734;28;20497;-69
2021/10/27 10:57:18;;;;;;;12.90;9.83;;;;;;;;;;5018758;28;20555;-67
2021/10/27 11:45:04;;;;;;;15.00;11.53;;;;;;;;;;5022875;28;20471;-68
2021/10/27 11:47:35;;;;;;;13.70;10.33;;;;;;;;;;5013457;28;20519;-69
2021/10/27 11:50:04;;;;;;;15.90;11.50;;;;;;;;;;5024853;28;20578;-67
2021/10/27 11:52:31;;;;;;;24.07;11.83;;;;;;;;;;5011831;28;20437;-72
2021/10/27 11:54:59;;;;;;;11.47;8.27;;;;;;;;;;5011542;28;20448;-69
2021/10/27 11:57:30;;;;;;;10.53;8.47;;;;;;;;;;5018505;28;20439;-66
2021/10/27 11:59:56;;;;;;;11.13;8.37;;;;;;;;;;5031123;28;20484;-67
2021/10/27 12:02:24;;;;;;;9.73;7.80;;;;;;;;;;5030738;28;20542;-68
2021/10/27 12:04:52;;;;;;;11.87;8.47;;;;;;;;;;5019588;28;20443;-65
2021/10/27 12:07:36;;;;;;;9.17;7.60;;;;;;;;;;5024458;28;20448;-64
2021/10/27 12:12:56;;;;;;;10.80;8.03;;;;;;;;;;5010546;28;20445;-65
2021/10/27 12:15:45;;;;;;;13.20;8.93;;;;;;;;;;5016205;28;22078;-68
2021/10/27 12:18:12;;;;;;;11.50;8.57;;;;;;;;;;5016015;28;20448;-66
2021/10/27 12:20:39;;;;;;;12.67;9.17;;;;;;;;;;5030955;28;20490;-67
2021/10/27 12:23:19;;;;;;;10.83;8.13;;;;;;;;;;5030415;28;20466;-68
2021/10/27 12:25:46;;;;;;;10.30;7.70;;;;;;;;;;5024004;28;20907;-67
2021/10/27 12:28:23;;;;;;;9.03;7.30;;;;;;;;;;5023757;28;20197;-66
2021/10/27 12:30:50;;;;;;;8.37;7.27;;;;;;;;;;5024744;28;20207;-69
2021/10/27 12:33:16;;;;;;;11.00;6.67;;;;;;;;;;5011471;28;20205;-69
2021/10/27 12:35:43;;;;;;;8.53;7.13;;;;;;;;;;5029375;28;20197;-64
2021/10/27 12:38:32;;;;;;;10.80;7.73;;;;;;;;;;5030100;28;20246;-70
2021/10/27 12:41:11;;;;;;;12.83;9.83;;;;;;;;;;5030700;28;20217;-68
2021/10/27 12:43:42;;;;;;;11.77;8.20;;;;;;;;;;5030322;28;20197;-66
2021/10/27 12:46:21;;;;;;;11.77;8.57;;;;;;;;;;5016600;28;20288;-66
2021/10/27 12:48:48;;;;;;;13.83;7.60;;;;;;;;;;5016111;28;20197;-68
2021/10/27 12:51:15;;;;;;;11.00;6.67;;;;;;;;;;5017923;28;20201;-67
2021/10/27 12:53:45;;;;;;;6.73;5.20;;;;;;;;;;5009891;28;20233;-68
2021/10/27 12:56:14;;;;;;;8.43;6.00;;;;;;;;;;5020260;28;20251;-67
2021/10/27 12:58:44;;;;;;;9.67;5.93;;;;;;;;;;5013067;28;20204;-66
2021/10/27 13:01:17;;;;;;;10.43;7.17;;;;;;;;;;5009542;28;20201;-68
2021/10/27 13:09:25;;;;;;;6.77;6.07;;;;;;;;;;5009465;28;20240;-69
2021/10/27 13:21:01;;;;;;;6.60;5.90;;;;;;;;;;5018341;28;20277;-67
2021/10/27 13:33:18;;;;;;;7.83;5.70;;;;;;;;;;5028050;28;20224;-67
2021/10/27 13:35:44;;;;;;;8.53;5.90;;;;;;;;;;5017572;28;20202;-64
2021/10/27 13:38:12;;;;;;;6.97;5.60;;;;;;;;;;5027155;28;20915;-64
2021/10/27 13:40:42;;;;;;;10.90;6.07;;;;;;;;;;5021928;28;20213;-66
2021/10/27 13:48:39;;;;;;;8.93;6.63;;;;;;;;;;5019336;28;20574;-66
2021/10/27 14:07:53;;;;;;;10.57;7.03;;;;;;;;;;5031715;28;20303;-67
2021/10/27 14:13:40;;;;;;;11.13;6.80;;;;;;;;;;5031770;28;21105;-67
2021/10/27 15:41:15;;;;;;;27.17;14.53;;;;;;;;;;5032801;28;20537;-67
2021/10/27 15:52:02;;;;;;;24.87;14.47;;;;;;;;;;5028336;28;20470;-69
2021/10/27 15:54:32;;;;;;;25.10;14.20;;;;;;;;;;5026842;28;20868;-63
2021/10/27 15:56:59;;;;;;;206.10;141.27;;;;;;;;;;5026047;28;20437;-65
2021/10/27 15:59:26;;;;;;;119.37;81.73;;;;;;;;;;5028092;28;20610;-68
2021/10/27 16:01:53;;;;;;;33.20;17.50;;;;;;;;;;5017059;28;20440;-72
2021/10/27 16:04:22;;;;;;;32.07;18.03;;;;;;;;;;5024707;28;20454;-72
2021/10/27 16:06:51;;;;;;;41.93;18.53;;;;;;;;;;5011517;28;20443;-66
2021/10/27 16:09:19;;;;;;;33.80;17.87;;;;;;;;;;5008161;28;20587;-72
2021/10/27 16:11:46;;;;;;;41.40;19.23;;;;;;;;;;5012325;28;20439;-69
2021/10/27 16:14:13;;;;;;;47.07;19.20;;;;;;;;;;4998962;28;21280;-65
2021/10/27 16:16:41;;;;;;;41.50;18.63;;;;;;;;;;4998586;28;20447;-65
2021/10/27 16:19:26;;;;;;;31.50;19.37;;;;;;;;;;5012230;28;20452;-66
2021/10/27 16:22:10;;;;;;;37.00;18.80;;;;;;;;;;5020787;28;20452;-67
2021/10/27 16:24:39;;;;;;;32.13;17.33;;;;;;;;;;5024100;28;20545;-68
2021/10/27 16:27:06;;;;;;;44.37;18.43;;;;;;;;;;5016891;28;20444;-66
2021/10/27 16:29:33;;;;;;;41.17;20.17;;;;;;;;;;5021981;28;21309;-65
2021/10/27 16:32:00;;;;;;;38.07;19.77;;;;;;;;;;5018129;28;20914;-65
2021/10/27 16:34:26;;;;;;;39.87;20.97;;;;;;;;;;5025687;28;20454;-65
2021/10/27 16:37:13;;;;;;;36.57;20.87;;;;;;;;;;5028554;28;20843;-64
2021/10/27 16:39:40;;;;;;;44.77;22.93;;;;;;;;;;5024331;28;20483;-67
2021/10/27 16:42:07;;;;;;;36.67;20.47;;;;;;;;;;5018798;28;20521;-66
2021/10/27 16:44:35;;;;;;;43.23;19.87;;;;;;;;;;5018574;28;20452;-68
2021/10/27 16:47:01;;;;;;;33.13;18.47;;;;;;;;;;5024600;28;20448;-68
2021/10/27 16:49:28;;;;;;;35.63;18.40;;;;;;;;;;5021244;28;20440;-66
2021/10/27 16:51:55;;;;;;;34.73;18.67;;;;;;;;;;5029405;28;20805;-65
2021/10/27 16:54:21;;;;;;;43.50;25.80;;;;;;;;;;5030325;28;20452;-66
2021/10/27 16:56:48;;;;;;;49.33;31.80;;;;;;;;;;5015584;28;20447;-66
2021/10/27 16:59:16;;;;;;;39.87;22.43;;;;;;;;;;5023120;28;20524;-66
2021/10/27 17:01:45;;;;;;;58.47;23.47;;;;;;;;;;5009857;28;21001;-65
2021/10/27 17:04:13;;;;;;;44.53;23.40;;;;;;;;;;5026058;28;20448;-68
2021/10/27 17:06:40;;;;;;;53.83;24.13;;;;;;;;;;5016449;28;20428;-69
2021/10/27 17:09:06;;;;;;;40.93;22.53;;;;;;;;;;5021813;28;20854;-64
2021/10/27 17:11:33;;;;;;;44.23;22.90;;;;;;;;;;5029544;28;20957;-67
2021/10/27 17:14:01;;;;;;;36.53;22.20;;;;;;;;;;5029587;28;20435;-70
2021/10/27 17:16:31;;;;;;;32.83;18.47;;;;;;;;;;5027155;28;20446;-69
2021/10/27 17:18:59;;;;;;;32.90;19.13;;;;;;;;;;5025854;28;20509;-67
2021/10/27 17:21:27;;;;;;;34.33;19.63;;;;;;;;;;5027994;28;20639;-68
2021/10/27 17:23:58;;;;;;;32.20;18.97;;;;;;;;;;5025937;28;20462;-67
2021/10/27 17:26:25;;;;;;;38.73;19.90;;;;;;;;;;5027460;28;20938;-65
2021/10/27 17:28:51;;;;;;;34.87;20.47;;;;;;;;;;5028235;28;20488;-65
2021/10/27 17:31:19;;;;;;;36.60;20.40;;;;;;;;;;5027173;28;20573;-69
2021/10/27 17:33:46;;;;;;;92.87;53.13;;;;;;;;;;5026307;28;20436;-67
2021/10/27 17:36:14;;;;;;;123.40;82.13;;;;;;;;;;5019790;28;20445;-66
2021/10/27 17:38:42;;;;;;;34.00;19.97;;;;;;;;;;5024806;28;20463;-66
2021/10/27 17:41:10;;;;;;;36.27;19.97;;;;;;;;;;5026174;28;20475;-66
2021/10/27 17:43:37;;;;;;;36.77;20.67;;;;;;;;;;5028185;28;20448;-66
2021/10/27 17:46:07;;;;;;;46.50;21.13;;;;;;;;;;5020447;28;20593;-67
2021/10/27 17:48:40;;;;;;;45.03;21.80;;;;;;;;;;5015268;28;20436;-66
2021/10/27 17:59:12;;;;;;;39.23;21.53;;;;;;;;;;5018804;28;21425;-69
2021/10/27 18:01:39;;;;;;;39.37;22.67;;;;;;;;;;5011752;28;20465;-67
2021/10/27 18:04:07;;;;;;;44.17;22.57;;;;;;;;;;5021091;28;21006;-69
2021/10/27 18:06:37;;;;;;;42.03;22.83;;;;;;;;;;5017170;28;20487;-67
2021/10/27 18:09:05;;;;;;;48.13;22.80;;;;;;;;;;5024081;28;20472;-64
2021/10/27 18:11:33;;;;;;;45.50;22.93;;;;;;;;;;5025447;28;20520;-65
2021/10/27 18:14:05;;;;;;;47.83;22.60;;;;;;;;;;5022904;28;20507;-63
2021/10/27 18:19:23;;;;;;;46.93;22.23;;;;;;;;;;5032229;28;20451;-69
2021/10/27 18:21:59;;;;;;;45.93;24.33;;;;;;;;;;5024546;28;20573;-69
2021/10/27 18:37:54;;;;;;;57.83;22.97;;;;;;;;;;5025654;28;20499;-68
2021/10/27 18:40:38;;;;;;;49.63;29.07;;;;;;;;;;5031665;28;20867;-68
2021/10/27 18:43:19;;;;;;;73.63;47.57;;;;;;;;;;5023356;28;21030;-68
2021/10/27 18:45:48;;;;;;;45.03;26.57;;;;;;;;;;5020911;28;20480;-67
2021/10/27 18:48:19;;;;;;;40.63;24.93;;;;;;;;;;5027513;28;20475;-68
2021/10/27 18:50:50;;;;;;;36.93;24.57;;;;;;;;;;5012123;28;21221;-69
2021/10/27 18:53:46;;;;;;;47.47;25.10;;;;;;;;;;5014227;28;20445;-69
2021/10/27 19:12:34;;;;;;;51.80;27.47;;;;;;;;;;5010915;28;20455;-69
2021/10/27 19:15:05;;;;;;;49.90;28.73;;;;;;;;;;5017885;28;20487;-69
2021/10/27 19:17:37;;;;;;;42.93;24.80;;;;;;;;;;5022819;28;20869;-69
2021/10/27 19:20:06;;;;;;;44.03;25.10;;;;;;;;;;5026341;28;20471;-68
2021/10/27 19:22:34;;;;;;;42.87;25.83;;;;;;;;;;5027581;28;20463;-67
2021/10/27 19:25:09;;;;;;;47.90;27.70;;;;;;;;;;5012866;28;21277;-68
2021/10/27 19:27:52;;;;;;;44.70;25.07;;;;;;;;;;5008784;28;20451;-67
2021/10/27 19:36:19;;;;;;;44.97;27.27;;;;;;;;;;5025095;28;20441;-66
2021/10/27 20:04:42;;;;;;;52.33;29.47;;;;;;;;;;5020615;28;20447;-67
2021/10/27 20:09:12;;;;;;;49.73;30.43;;;;;;;;;;5024859;28;20464;-66
2021/10/27 20:12:10;;;;;;;50.40;29.47;;;;;;;;;;5015182;28;20444;-67
2021/10/27 20:17:27;;;;;;;49.17;28.00;;;;;;;;;;5026455;28;20925;-67
2021/10/27 20:52:35;;;;;;;51.47;28.10;;;;;;;;;;5009772;28;20445;-66
2021/10/27 20:55:04;;;;;;;50.43;29.53;;;;;;;;;;5009646;28;20456;-66
2021/10/27 20:57:42;;;;;;;48.80;28.20;;;;;;;;;;5013473;28;20432;-65
2021/10/27 21:00:17;;;;;;;52.60;28.40;;;;;;;;;;5028984;28;20534;-64
2021/10/27 21:03:50;;;;;;;50.07;28.03;;;;;;;;;;5028776;28;20803;-65
2021/10/27 21:13:56;;;;;;;58.43;28.27;;;;;;;;;;5004328;28;20450;-65
2021/10/27 21:16:23;;;;;;;46.87;27.80;;;;;;;;;;5032638;28;20458;-65
2021/10/27 21:18:50;;;;;;;46.40;27.13;;;;;;;;;;5032093;28;20447;-62
2021/10/27 21:21:19;;;;;;;48.33;28.93;;;;;;;;;;5017688;28;20222;-66
2021/10/27 21:23:46;;;;;;;46.28;27.35;;;;;;;;;;5017736;28;20893;-67
2021/10/27 21:26:15;;;;;;;45.07;26.97;;;;;;;;;;5017378;28;20295;-64
2021/10/27 21:29:04;;;;;;;46.27;28.60;;;;;;;;;;5020782;28;20443;-67
2021/10/27 21:44:39;;;;;;;39.67;25.87;;;;;;;;;;5027916;28;20440;-69
2021/10/27 21:47:07;;;;;;;39.57;26.83;;;;;;;;;;5022315;28;20499;-66